Time;durP1;ratioP1;P1;durP2;ratioP2;P2;SDS_P1;SDS_P2;PMS_P1;PMS_P2;Temp;Humidity;BMP_temperature;BMP_pressure;BME280_temperature;BME280_humidity;BME280_pressure;Samples;Min_cycle;Max_cycle;Signal;HPM_P1;HPM_P2
2022/04/23 00:02:05;;;;;;;16.27;11.67;;;11.60;99.90;;;;;;4972912;28;20087;-83
2022/04/23 00:04:30;;;;;;;16.90;11.80;;;11.50;99.90;;;;;;4989309;28;20114;-84
2022/04/23 00:06:57;;;;;;;17.53;11.90;;;11.50;99.90;;;;;;4956650;28;20078;-84
2022/04/23 00:09:23;;;;;;;16.40;12.10;;;11.50;99.90;;;;;;4956474;28;20039;-83
2022/04/23 00:11:48;;;;;;;15.77;11.40;;;11.40;99.90;;;;;;4960067;28;20042;-82
2022/04/23 00:14:14;;;;;;;15.63;11.83;;;11.40;99.90;;;;;;4979898;28;20733;-83
2022/04/23 00:16:40;;;;;;;16.67;11.60;;;11.40;99.90;;;;;;4956611;28;20047;-82
2022/04/23 00:19:06;;;;;;;16.70;12.10;;;11.30;99.90;;;;;;4956208;28;20046;-83
2022/04/23 00:21:32;;;;;;;16.57;12.43;;;11.30;99.90;;;;;;4940363;28;20046;-83
2022/04/23 00:23:57;;;;;;;16.13;12.47;;;11.20;99.90;;;;;;4957462;28;20043;-83
2022/04/23 00:26:23;;;;;;;16.87;11.80;;;11.30;99.90;;;;;;4975882;28;20038;-83
2022/04/23 00:28:49;;;;;;;17.23;12.50;;;11.20;99.90;;;;;;4956619;28;20038;-82
2022/04/23 00:31:15;;;;;;;16.70;13.27;;;11.20;99.90;;;;;;4956344;28;20494;-83
2022/04/23 00:33:41;;;;;;;17.10;11.93;;;11.20;99.90;;;;;;4965786;28;20050;-83
2022/04/23 00:36:09;;;;;;;18.87;13.33;;;11.20;99.90;;;;;;4980039;28;20121;-82
2022/04/23 00:38:42;;;;;;;16.07;12.80;;;11.20;99.90;;;;;;4989090;28;20046;-84
2022/04/23 00:41:43;;;;;;;17.00;12.87;;;11.10;99.90;;;;;;4959367;28;20087;-83
2022/04/23 00:43:54;;;;;;;14.90;11.77;;;11.10;99.90;;;;;;4972248;28;20042;-85
2022/04/23 00:46:20;;;;;;;16.23;12.57;;;11.10;99.90;;;;;;4973306;28;20058;-83
2022/04/23 00:48:46;;;;;;;15.57;12.50;;;11.10;99.90;;;;;;4940070;28;20153;-83
2022/04/23 00:51:12;;;;;;;16.20;11.40;;;11.00;99.90;;;;;;4958627;28;20038;-84
2022/04/23 00:53:38;;;;;;;13.10;10.70;;;11.00;99.90;;;;;;4961771;28;20505;-83
2022/04/23 00:56:05;;;;;;;17.57;10.87;;;11.00;99.90;;;;;;4995220;28;20038;-83
2022/04/23 00:58:31;;;;;;;15.83;11.30;;;11.00;99.90;;;;;;4995193;28;20116;-83
2022/04/23 01:00:57;;;;;;;15.03;11.03;;;11.00;99.90;;;;;;4961753;28;20043;-84
2022/04/23 01:03:23;;;;;;;13.07;10.13;;;10.90;99.90;;;;;;4959484;28;20039;-84
2022/04/23 01:05:49;;;;;;;15.30;10.43;;;10.90;99.90;;;;;;4975673;28;20038;-83
2022/04/23 01:08:17;;;;;;;14.03;10.57;;;11.00;99.90;;;;;;4987178;28;20058;-83
2022/04/23 01:10:46;;;;;;;13.03;9.97;;;10.90;99.90;;;;;;4974901;28;20042;-83
2022/04/23 01:13:14;;;;;;;12.80;10.23;;;10.90;99.90;;;;;;4963401;28;20050;-83
2022/04/23 01:15:43;;;;;;;15.13;10.73;;;10.90;99.90;;;;;;4978025;28;20042;-83
2022/04/23 01:18:09;;;;;;;13.57;10.53;;;10.90;99.90;;;;;;4975810;28;20039;-84
2022/04/23 01:20:36;;;;;;;18.40;11.03;;;10.80;99.90;;;;;;4939609;29;20051;-84
2022/04/23 01:23:01;;;;;;;15.63;10.80;;;10.90;99.90;;;;;;4963304;28;20043;-84
2022/04/23 01:25:28;;;;;;;15.50;10.63;;;10.80;99.90;;;;;;4975443;28;20047;-82
2022/04/23 01:27:54;;;;;;;17.17;10.90;;;10.80;99.90;;;;;;4959095;28;20050;-83
2022/04/23 01:30:20;;;;;;;15.43;11.27;;;10.70;99.90;;;;;;4958848;28;20047;-84
2022/04/23 01:32:46;;;;;;;16.03;11.20;;;10.80;99.90;;;;;;4974694;28;20051;-83
2022/04/23 01:35:11;;;;;;;15.40;11.43;;;10.70;99.90;;;;;;4942986;28;20054;-83
2022/04/23 01:37:37;;;;;;;13.77;10.90;;;10.70;99.90;;;;;;4968783;28;20121;-84
2022/04/23 01:40:04;;;;;;;15.87;10.93;;;10.70;99.90;;;;;;4958662;28;20054;-84
2022/04/23 01:42:30;;;;;;;12.90;10.70;;;10.70;99.90;;;;;;4987567;28;20085;-83
2022/04/23 01:44:55;;;;;;;15.27;10.73;;;10.60;99.90;;;;;;4974572;28;20058;-84
2022/04/23 01:47:21;;;;;;;14.70;11.60;;;10.60;99.90;;;;;;5005762;28;20066;-83
2022/04/23 01:49:47;;;;;;;18.03;12.13;;;10.50;99.90;;;;;;4980598;28;20034;-83
2022/04/23 01:52:13;;;;;;;16.00;11.27;;;10.50;99.90;;;;;;4992628;28;20042;-83
2022/04/23 01:54:39;;;;;;;16.77;11.83;;;10.40;99.90;;;;;;4994232;28;20397;-85
2022/04/23 01:57:06;;;;;;;18.20;12.47;;;10.40;99.90;;;;;;4969164;28;20122;-84
2022/04/23 01:59:31;;;;;;;16.00;11.27;;;10.40;99.90;;;;;;4991275;28;20038;-84
2022/04/23 02:01:58;;;;;;;16.33;11.70;;;10.50;99.90;;;;;;4977174;28;20145;-83
2022/04/23 02:04:25;;;;;;;18.20;11.47;;;10.40;99.90;;;;;;4994649;28;20057;-84
2022/04/23 02:06:51;;;;;;;16.57;11.53;;;10.40;99.90;;;;;;4977585;28;20117;-84
2022/04/23 02:09:17;;;;;;;14.40;11.60;;;10.30;99.90;;;;;;4995427;28;20465;-82
2022/04/23 02:11:43;;;;;;;14.37;11.33;;;10.40;99.90;;;;;;4995749;28;20042;-80
2022/04/23 02:14:09;;;;;;;13.97;12.23;;;10.30;99.90;;;;;;4968029;28;20045;-86
2022/04/23 02:16:35;;;;;;;18.83;11.97;;;10.30;99.90;;;;;;4958001;28;20034;-83
2022/04/23 02:19:03;;;;;;;18.93;13.10;;;10.30;99.90;;;;;;4993228;28;20050;-84
2022/04/23 02:21:29;;;;;;;14.70;11.97;;;10.20;99.90;;;;;;4987950;28;20034;-84
2022/04/23 02:23:55;;;;;;;16.53;11.80;;;10.20;99.90;;;;;;4999647;28;20050;-84
2022/04/23 02:26:22;;;;;;;17.03;12.47;;;10.20;99.90;;;;;;4960306;28;20041;-83
2022/04/23 02:28:48;;;;;;;20.17;12.27;;;10.20;99.90;;;;;;4991862;28;20057;-85
2022/04/23 02:31:14;;;;;;;18.07;12.43;;;10.10;99.90;;;;;;4990057;28;20038;-87
2022/04/23 02:33:40;;;;;;;18.20;13.47;;;10.10;99.90;;;;;;4977115;28;20057;-84
2022/04/23 02:36:06;;;;;;;19.17;12.43;;;9.90;99.90;;;;;;4973674;28;20049;-84
2022/04/23 02:38:42;;;;;;;18.60;13.07;;;10.00;99.90;;;;;;4990149;28;20112;-84
2022/04/23 02:41:08;;;;;;;19.00;12.83;;;9.90;99.90;;;;;;4989510;28;20493;-82
2022/04/23 02:43:41;;;;;;;17.40;13.37;;;9.90;99.90;;;;;;4970756;28;20042;-86
2022/04/23 02:46:07;;;;;;;18.90;13.00;;;9.90;99.90;;;;;;4966113;28;20051;-83
2022/04/23 02:48:33;;;;;;;18.50;12.60;;;9.80;99.90;;;;;;4972372;28;20054;-84
2022/04/23 02:50:59;;;;;;;20.33;13.83;;;9.90;99.90;;;;;;4975891;28;20105;-83
2022/04/23 02:53:26;;;;;;;16.30;12.93;;;9.80;99.90;;;;;;4976486;28;20131;-83
2022/04/23 02:55:56;;;;;;;16.73;12.67;;;9.80;99.90;;;;;;4979211;28;20043;-84
2022/04/23 02:58:24;;;;;;;19.20;12.57;;;9.70;99.90;;;;;;4957616;28;20658;-83
2022/04/23 03:00:49;;;;;;;20.43;12.80;;;9.70;99.90;;;;;;4956721;28;20046;-84
2022/04/23 03:03:15;;;;;;;19.07;13.17;;;9.70;99.90;;;;;;4960254;28;20038;-84
2022/04/23 03:05:42;;;;;;;20.27;13.70;;;9.60;99.90;;;;;;4955282;28;20383;-86
2022/04/23 03:08:10;;;;;;;19.50;13.53;;;9.60;99.90;;;;;;4971516;28;20035;-85
2022/04/23 03:10:36;;;;;;;19.00;13.30;;;9.60;99.90;;;;;;4960448;28;20113;-84
2022/04/23 03:13:02;;;;;;;20.63;13.33;;;9.60;99.90;;;;;;4970634;28;20050;-83
2022/04/23 03:15:27;;;;;;;16.70;12.70;;;9.60;99.90;;;;;;4962981;28;20137;-85
2022/04/23 03:18:05;;;;;;;17.47;13.37;;;9.60;99.90;;;;;;4956234;28;20152;-85
2022/04/23 03:20:32;;;;;;;21.67;13.33;;;9.50;99.90;;;;;;4970592;28;20572;-84
2022/04/23 03:22:58;;;;;;;20.80;13.57;;;9.60;99.90;;;;;;4979088;28;20043;-83
2022/04/23 03:25:23;;;;;;;17.97;13.17;;;9.50;99.90;;;;;;4962323;28;20105;-85
2022/04/23 03:27:50;;;;;;;16.83;12.70;;;9.50;99.90;;;;;;4991705;28;20051;-83
2022/04/23 03:30:16;;;;;;;19.63;13.33;;;9.40;99.90;;;;;;4954155;28;20039;-83
2022/04/23 03:32:44;;;;;;;18.90;13.63;;;9.40;99.90;;;;;;4991633;28;20097;-83
2022/04/23 03:35:10;;;;;;;22.63;14.17;;;9.40;99.90;;;;;;4961128;28;20046;-83
2022/04/23 03:37:42;;;;;;;18.50;13.10;;;9.30;99.90;;;;;;4954848;28;20050;-83
2022/04/23 03:40:09;;;;;;;18.83;13.43;;;9.30;99.90;;;;;;4972721;28;20053;-83
2022/04/23 03:42:36;;;;;;;18.80;13.30;;;9.30;99.90;;;;;;4971693;28;20070;-83
2022/04/23 03:45:04;;;;;;;19.33;13.40;;;9.20;99.90;;;;;;4972819;28;20510;-83
2022/04/23 03:47:33;;;;;;;20.27;13.63;;;9.20;99.90;;;;;;4994153;28;20046;-84
2022/04/23 03:50:08;;;;;;;18.67;13.27;;;9.20;99.90;;;;;;4977667;28;20495;-82
2022/04/23 03:52:34;;;;;;;20.77;13.50;;;9.20;99.90;;;;;;4975997;28;20038;-83
2022/04/23 03:55:00;;;;;;;19.13;13.30;;;9.10;99.90;;;;;;4978366;28;20045;-82
2022/04/23 03:57:26;;;;;;;20.47;13.93;;;9.20;99.90;;;;;;4975613;28;20065;-82
2022/04/23 03:59:51;;;;;;;20.47;13.63;;;9.10;99.90;;;;;;4974938;28;20517;-83
2022/04/23 04:02:17;;;;;;;19.00;13.17;;;9.00;99.90;;;;;;4978148;28;20037;-84
2022/04/23 04:04:43;;;;;;;21.07;12.90;;;9.00;99.90;;;;;;5005815;28;20046;-84
2022/04/23 04:07:09;;;;;;;19.00;13.20;;;9.00;99.90;;;;;;4981512;28;20389;-84
2022/04/23 04:09:35;;;;;;;19.83;13.73;;;9.00;99.90;;;;;;5012577;28;20048;-82
2022/04/23 04:12:01;;;;;;;17.47;12.90;;;8.90;99.90;;;;;;4999745;28;20050;-85
2022/04/23 04:14:31;;;;;;;17.87;12.97;;;8.90;99.90;;;;;;4987954;28;20050;-83
2022/04/23 04:17:02;;;;;;;18.27;13.60;;;8.90;99.90;;;;;;5003912;28;20870;-82
2022/04/23 04:19:29;;;;;;;19.47;13.20;;;8.90;99.90;;;;;;4994225;28;20046;-83
2022/04/23 04:21:57;;;;;;;17.33;12.73;;;8.90;99.90;;;;;;4974365;28;20399;-84
2022/04/23 04:24:24;;;;;;;19.53;13.40;;;8.80;99.90;;;;;;4979378;28;20049;-83
2022/04/23 04:26:50;;;;;;;20.00;12.57;;;8.90;99.90;;;;;;4966291;28;20042;-84
2022/04/23 04:29:17;;;;;;;18.10;12.90;;;8.80;99.90;;;;;;4981502;28;20046;-84
2022/04/23 04:31:51;;;;;;;17.63;13.20;;;8.80;99.90;;;;;;4990883;28;20038;-85
2022/04/23 04:34:28;;;;;;;16.20;12.80;;;8.80;99.90;;;;;;4993243;28;20049;-82
2022/04/23 04:37:05;;;;;;;16.30;12.57;;;8.90;99.90;;;;;;4996473;28;20034;-83
2022/04/23 04:39:31;;;;;;;17.33;12.57;;;8.90;99.90;;;;;;4998002;28;20041;-84
2022/04/23 04:41:57;;;;;;;18.33;13.30;;;8.90;99.90;;;;;;4999432;28;20050;-84
2022/04/23 04:44:22;;;;;;;18.50;12.80;;;8.90;99.90;;;;;;4999058;28;20528;-84
2022/04/23 04:46:48;;;;;;;18.77;12.57;;;8.90;99.90;;;;;;4988185;28;20046;-82
2022/04/23 04:49:14;;;;;;;16.57;12.43;;;8.90;99.90;;;;;;5007457;28;20464;-85
2022/04/23 04:51:40;;;;;;;18.33;12.73;;;8.90;99.90;;;;;;5005135;28;20113;-83
2022/04/23 04:54:06;;;;;;;17.37;13.57;;;9.00;99.90;;;;;;4996071;28;20516;-86
2022/04/23 04:56:32;;;;;;;15.97;12.30;;;9.00;99.90;;;;;;4998732;28;20046;-83
2022/04/23 04:58:59;;;;;;;16.20;12.53;;;9.00;99.90;;;;;;4996924;28;20050;-84
2022/04/23 05:01:25;;;;;;;16.70;12.63;;;9.00;99.90;;;;;;5014931;28;20049;-83
2022/04/23 05:03:51;;;;;;;15.43;12.17;;;9.00;99.90;;;;;;4990537;28;20116;-84
2022/04/23 05:06:17;;;;;;;15.47;12.60;;;9.10;99.90;;;;;;5007005;28;20053;-84
2022/04/23 05:08:43;;;;;;;18.23;12.77;;;9.00;99.90;;;;;;4987901;28;20053;-85
2022/04/23 05:11:10;;;;;;;15.47;12.10;;;9.10;99.90;;;;;;4997744;28;20393;-84
2022/04/23 05:13:37;;;;;;;16.73;12.53;;;9.10;99.90;;;;;;4981706;28;20086;-85
2022/04/23 05:16:08;;;;;;;15.83;12.83;;;9.20;99.90;;;;;;5021778;28;20046;-84
2022/04/23 05:18:34;;;;;;;17.60;12.10;;;9.10;99.90;;;;;;4981253;28;20488;-86
2022/04/23 05:21:00;;;;;;;15.77;11.90;;;9.20;99.90;;;;;;5007991;28;20301;-85
2022/04/23 05:23:26;;;;;;;16.17;12.20;;;9.20;99.90;;;;;;4973136;28;20038;-83
2022/04/23 05:25:52;;;;;;;16.50;12.90;;;9.20;99.90;;;;;;4991164;28;20170;-83
2022/04/23 05:28:18;;;;;;;16.53;13.03;;;9.20;99.90;;;;;;5001377;28;20053;-84
2022/04/23 05:30:44;;;;;;;16.83;12.37;;;9.30;99.90;;;;;;4978153;28;20113;-82
2022/04/23 05:33:10;;;;;;;16.33;12.60;;;9.40;99.90;;;;;;4993531;28;20400;-82
2022/04/23 05:35:37;;;;;;;16.63;12.60;;;9.40;99.90;;;;;;5009316;28;20042;-82
2022/04/23 05:38:04;;;;;;;15.23;12.47;;;9.40;99.90;;;;;;4997187;28;20041;-85
2022/04/23 05:40:29;;;;;;;16.67;12.37;;;9.40;99.90;;;;;;4994396;28;20042;-82
2022/04/23 05:42:58;;;;;;;15.97;12.43;;;9.50;99.90;;;;;;4984603;28;20050;-84
2022/04/23 05:45:28;;;;;;;15.83;13.30;;;9.50;99.90;;;;;;4994469;28;20116;-84
2022/04/23 05:47:54;;;;;;;15.97;12.67;;;9.60;99.90;;;;;;4983016;28;20030;-81
2022/04/23 05:50:20;;;;;;;17.57;12.87;;;9.60;99.90;;;;;;4996509;28;20073;-82
2022/04/23 05:52:46;;;;;;;16.53;12.87;;;9.60;99.90;;;;;;4980671;28;20084;-84
2022/04/23 05:55:12;;;;;;;16.33;12.17;;;9.70;99.90;;;;;;4996644;28;20396;-83
2022/04/23 05:57:39;;;;;;;16.97;12.43;;;9.70;99.90;;;;;;5009320;28;20096;-82
2022/04/23 06:00:06;;;;;;;16.30;12.13;;;9.80;99.90;;;;;;5013647;28;20046;-81
2022/04/23 06:02:32;;;;;;;14.33;11.53;;;9.80;99.90;;;;;;4988446;28;20040;-81
2022/04/23 06:04:58;;;;;;;15.03;12.17;;;9.80;99.90;;;;;;4983163;28;20054;-81
2022/04/23 06:07:24;;;;;;;17.73;12.20;;;10.00;99.90;;;;;;4997375;28;20038;-82
2022/04/23 06:09:49;;;;;;;17.67;12.97;;;10.00;99.90;;;;;;4997995;28;20117;-83
2022/04/23 06:12:15;;;;;;;16.43;12.27;;;10.10;99.90;;;;;;4996574;28;20401;-82
2022/04/23 06:14:41;;;;;;;15.63;12.13;;;10.20;99.90;;;;;;4996427;28;20038;-82
2022/04/23 06:17:08;;;;;;;14.73;12.17;;;10.30;99.90;;;;;;4991667;28;20052;-82
2022/04/23 06:19:34;;;;;;;15.77;12.57;;;10.30;99.90;;;;;;4997124;28;20089;-81
2022/04/23 06:22:00;;;;;;;17.20;13.03;;;10.40;99.90;;;;;;4972937;28;20070;-81
2022/04/23 06:24:26;;;;;;;17.73;13.00;;;10.40;99.90;;;;;;4983192;28;20045;-83
2022/04/23 06:26:52;;;;;;;17.10;13.47;;;10.50;99.90;;;;;;4992955;28;20124;-82
2022/04/23 06:29:17;;;;;;;18.50;12.83;;;10.60;99.90;;;;;;5000759;28;20127;-84
2022/04/23 06:31:43;;;;;;;17.30;12.93;;;10.60;99.90;;;;;;4996098;28;20056;-81
2022/04/23 06:34:10;;;;;;;15.40;12.53;;;10.70;99.90;;;;;;5015921;28;20547;-82
2022/04/23 06:36:36;;;;;;;16.47;12.43;;;10.80;99.90;;;;;;4992461;28;20041;-83
2022/04/23 06:39:03;;;;;;;19.17;12.10;;;10.90;99.90;;;;;;4979863;28;20041;-82
2022/04/23 06:41:29;;;;;;;16.00;12.70;;;11.00;99.90;;;;;;5010313;28;20591;-83
2022/04/23 06:43:54;;;;;;;16.43;11.53;;;11.00;99.90;;;;;;5015489;28;20107;-83
2022/04/23 06:46:20;;;;;;;16.97;12.53;;;11.10;99.90;;;;;;4993946;28;20041;-82
2022/04/23 06:48:46;;;;;;;15.00;12.93;;;11.10;99.90;;;;;;5014645;28;20469;-83
2022/04/23 06:51:12;;;;;;;17.90;13.33;;;11.20;99.90;;;;;;5004990;28;20042;-84
2022/04/23 06:53:37;;;;;;;20.43;13.00;;;11.20;99.90;;;;;;4981396;28;20088;-82
2022/04/23 06:56:04;;;;;;;16.17;13.17;;;11.30;99.90;;;;;;5007548;28;20129;-83
2022/04/23 06:58:30;;;;;;;17.07;12.50;;;11.40;99.90;;;;;;5015413;28;20514;-83
2022/04/23 07:00:58;;;;;;;17.73;12.70;;;11.40;99.90;;;;;;4995924;28;20050;-83
2022/04/23 07:03:24;;;;;;;21.30;12.63;;;11.40;99.90;;;;;;4996153;28;20034;-84
2022/04/23 07:05:51;;;;;;;14.30;12.00;;;11.60;99.90;;;;;;4999930;28;20125;-85
2022/04/23 07:08:17;;;;;;;16.73;13.00;;;11.70;99.90;;;;;;4981786;28;20072;-84
2022/04/23 07:10:44;;;;;;;17.57;13.47;;;11.70;99.90;;;;;;4994656;28;20041;-85
2022/04/23 07:13:11;;;;;;;16.30;12.37;;;11.80;99.90;;;;;;4999310;28;20041;-81
2022/04/23 07:15:39;;;;;;;23.83;12.37;;;11.90;99.90;;;;;;4994798;28;20044;-82
2022/04/23 07:18:06;;;;;;;16.53;12.33;;;12.00;99.90;;;;;;4995782;28;20057;-83
2022/04/23 07:20:32;;;;;;;16.27;12.27;;;12.00;99.90;;;;;;4995506;28;20046;-85
2022/04/23 07:25:43;;;;;;;17.50;12.83;;;12.20;99.90;;;;;;4982847;28;20057;-82
2022/04/23 07:28:08;;;;;;;15.93;11.93;;;12.20;99.90;;;;;;4999183;28;20477;-79
2022/04/23 07:30:35;;;;;;;15.63;11.60;;;12.30;99.90;;;;;;4996360;28;20121;-81
2022/04/23 07:33:01;;;;;;;14.43;12.07;;;12.40;99.90;;;;;;4980329;28;20099;-82
2022/04/23 07:38:20;;;;;;;16.67;12.97;;;12.50;99.90;;;;;;5001981;28;20489;-84
2022/04/23 07:40:50;;;;;;;15.73;12.87;;;12.60;99.90;;;;;;4991981;28;20500;-83
2022/04/23 07:43:16;;;;;;;15.53;12.33;;;12.60;99.90;;;;;;4985220;28;20120;-82
2022/04/23 07:45:45;;;;;;;13.70;11.13;;;12.70;99.90;;;;;;4995181;28;20505;-81
2022/04/23 07:48:12;;;;;;;15.73;11.70;;;12.80;99.90;;;;;;4994565;28;20485;-82
2022/04/23 07:50:40;;;;;;;16.17;12.60;;;12.90;99.90;;;;;;4980082;28;20079;-82
2022/04/23 07:53:10;;;;;;;15.63;11.93;;;13.00;99.90;;;;;;4993373;28;20577;-83
2022/04/23 07:55:38;;;;;;;14.70;12.47;;;13.10;99.90;;;;;;4995497;28;20119;-82
2022/04/23 07:58:04;;;;;;;15.03;11.83;;;13.20;99.90;;;;;;4999802;28;20053;-82
2022/04/23 08:00:36;;;;;;;14.93;12.10;;;13.30;99.90;;;;;;4990056;28;20088;-83
2022/04/23 08:03:03;;;;;;;14.50;12.00;;;13.50;99.90;;;;;;5006643;28;20041;-83
2022/04/23 08:05:32;;;;;;;15.43;11.63;;;13.50;99.90;;;;;;5015197;28;20045;-85
2022/04/23 08:07:58;;;;;;;15.30;11.00;;;13.60;99.90;;;;;;4985189;28;20406;-84
2022/04/23 08:10:24;;;;;;;17.63;12.60;;;13.70;99.90;;;;;;4996538;28;20053;-84
2022/04/23 08:12:50;;;;;;;17.17;12.27;;;13.80;99.90;;;;;;4996310;28;20049;-83
2022/04/23 08:15:16;;;;;;;16.47;11.50;;;13.90;99.90;;;;;;5007632;28;20037;-83
2022/04/23 08:17:42;;;;;;;13.30;11.83;;;14.00;99.90;;;;;;4992991;28;20037;-84
2022/04/23 08:20:09;;;;;;;14.40;11.20;;;14.20;99.90;;;;;;5001339;28;20152;-84
2022/04/23 08:22:35;;;;;;;17.17;11.43;;;14.20;99.90;;;;;;4999253;28;20452;-83
2022/04/23 08:25:02;;;;;;;16.23;11.53;;;14.30;99.90;;;;;;4998907;28;20092;-84
2022/04/23 08:27:28;;;;;;;16.10;11.23;;;14.40;99.40;;;;;;4998789;28;20048;-83
2022/04/23 08:32:38;;;;;;;17.90;10.10;;;14.50;97.60;;;;;;5003129;28;20404;-87
2022/04/23 08:35:05;;;;;;;15.97;10.90;;;14.60;96.80;;;;;;5010950;28;20041;-83
2022/04/23 08:37:34;;;;;;;14.23;9.90;;;14.70;95.00;;;;;;5003699;28;20400;-86
2022/04/23 08:40:00;;;;;;;14.67;10.77;;;14.80;94.80;;;;;;5005504;28;20037;-84
2022/04/23 08:42:26;;;;;;;13.37;11.33;;;15.00;93.90;;;;;;5006414;28;20042;-84
2022/04/23 08:44:53;;;;;;;13.27;11.43;;;15.00;92.10;;;;;;4982593;28;20052;-83
2022/04/23 08:47:22;;;;;;;14.57;10.77;;;15.00;91.40;;;;;;4991215;28;20385;-86
2022/04/23 08:49:53;;;;;;;14.30;10.73;;;15.00;88.80;;;;;;4988445;28;20101;-84
2022/04/23 08:52:33;;;;;;;13.77;10.45;;;15.20;90.60;;;;;;5000852;28;20054;-84
2022/04/23 08:55:04;;;;;;;17.53;10.77;;;15.30;79.50;;;;;;5014926;28;20138;-84
2022/04/23 08:57:30;;;;;;;13.38;10.73;;;15.40;77.30;;;;;;5010622;28;20067;-85
2022/04/23 08:59:56;;;;;;;14.00;10.77;;;15.40;83.20;;;;;;5002363;28;20076;-84
2022/04/23 09:02:26;;;;;;;14.70;10.90;;;15.40;80.40;;;;;;4998366;28;20037;-81
2022/04/23 09:04:56;;;;;;;15.00;11.17;;;15.40;78.20;;;;;;5005302;28;20049;-83
2022/04/23 09:07:26;;;;;;;14.37;11.03;;;15.50;80.20;;;;;;4988815;28;20104;-83
2022/04/23 09:09:54;;;;;;;14.50;10.80;;;15.60;76.30;;;;;;5014183;28;20409;-83
2022/04/23 09:12:24;;;;;;;13.30;10.60;;;15.90;79.50;;;;;;5013375;28;20048;-84
2022/04/23 09:14:51;;;;;;;18.20;10.30;;;15.90;74.00;;;;;;5010423;28;20065;-83
2022/04/23 09:25:41;;;;;;;11.80;9.75;;;16.20;67.70;;;;;;4987520;28;20481;-81
2022/04/23 09:28:18;;;;;;;11.68;9.35;;;16.20;70.10;;;;;;4997631;28;20037;-83
2022/04/23 09:30:46;;;;;;;12.23;10.15;;;16.20;65.40;;;;;;4990381;28;20041;-82
2022/04/23 09:33:12;;;;;;;11.50;9.73;;;16.10;67.10;;;;;;4985109;28;20052;-82
2022/04/23 09:35:57;;;;;;;11.35;10.15;;;16.10;68.40;;;;;;5000748;28;20054;-82
2022/04/23 09:38:24;;;;;;;11.30;9.73;;;16.30;66.60;;;;;;5016920;28;20045;-83
2022/04/23 09:40:51;;;;;;;9.77;8.77;;;16.30;66.00;;;;;;4988451;28;20053;-83
2022/04/23 09:43:30;;;;;;;13.15;9.70;;;16.40;65.60;;;;;;5030517;28;20038;-84
2022/04/23 09:46:00;;;;;;;10.63;9.63;;;16.50;61.80;;;;;;4997206;28;20053;-86
2022/04/23 09:48:26;;;;;;;11.60;9.85;;;16.60;62.70;;;;;;4965372;28;20053;-83
2022/04/23 09:50:52;;;;;;;11.70;9.88;;;16.70;67.20;;;;;;4997429;28;20046;-83
2022/04/23 09:53:19;;;;;;;12.90;10.52;;;16.90;65.90;;;;;;5000302;28;20175;-83
2022/04/23 09:55:46;;;;;;;12.23;9.57;;;16.90;63.50;;;;;;4997466;28;20053;-83
2022/04/23 09:58:13;;;;;;;11.35;9.82;;;16.90;64.40;;;;;;4997835;28;20124;-83
2022/04/23 10:00:44;;;;;;;11.73;9.60;;;17.00;63.10;;;;;;5013571;28;20846;-81
2022/04/23 10:03:11;;;;;;;12.65;9.70;;;17.00;61.60;;;;;;5016710;28;20052;-83
2022/04/23 10:05:45;;;;;;;12.55;10.05;;;17.10;61.40;;;;;;5033927;28;20037;-84
2022/04/23 10:08:13;;;;;;;13.88;9.50;;;17.00;60.90;;;;;;5020880;28;20547;-84
2022/04/23 10:10:54;;;;;;;10.95;9.85;;;17.00;61.10;;;;;;5000600;28;20493;-81
2022/04/23 10:13:22;;;;;;;10.45;9.38;;;17.10;60.80;;;;;;5026745;28;20041;-84
2022/04/23 10:15:48;;;;;;;10.57;9.20;;;17.20;61.10;;;;;;5025074;28;20045;-84
2022/04/23 10:18:15;;;;;;;14.20;10.18;;;17.30;61.60;;;;;;5000388;28;20099;-84
2022/04/23 10:20:52;;;;;;;10.90;9.52;;;17.30;60.20;;;;;;4979715;28;20038;-83
2022/04/23 10:23:42;;;;;;;13.07;9.52;;;17.20;60.10;;;;;;5004798;28;20045;-84
2022/04/23 10:26:26;;;;;;;13.57;10.40;;;17.20;56.70;;;;;;4997107;28;20088;-83
2022/04/23 10:28:52;;;;;;;11.07;8.95;;;17.00;59.20;;;;;;4990041;28;20044;-83
2022/04/23 10:31:19;;;;;;;11.05;9.80;;;17.20;60.00;;;;;;4980504;28;20045;-83
2022/04/23 10:33:51;;;;;;;16.33;10.05;;;17.30;59.40;;;;;;4992324;28;20033;-84
2022/04/23 10:36:21;;;;;;;13.23;9.82;;;17.50;58.50;;;;;;4987560;28;20116;-83
2022/04/23 10:38:52;;;;;;;11.60;10.40;;;17.50;58.70;;;;;;4996632;28;20073;-84
2022/04/23 10:41:22;;;;;;;15.43;11.43;;;17.50;58.90;;;;;;4996688;28;20058;-82
2022/04/23 10:44:00;;;;;;;22.45;10.75;;;17.40;59.00;;;;;;4996760;28;20497;-82
2022/04/23 10:46:37;;;;;;;13.00;10.15;;;17.40;59.50;;;;;;4996246;28;20050;-85
2022/04/23 10:49:13;;;;;;;13.48;10.75;;;17.60;59.10;;;;;;5001585;28;20049;-83
2022/04/23 10:51:49;;;;;;;15.45;10.80;;;17.60;58.40;;;;;;5014709;28;20037;-85
2022/04/23 10:54:19;;;;;;;12.30;10.40;;;17.60;58.10;;;;;;4981709;28;20429;-82
2022/04/23 10:56:49;;;;;;;13.15;10.25;;;17.60;58.10;;;;;;4984363;28;20033;-84
2022/04/23 10:59:44;;;;;;;12.05;10.02;;;17.60;57.10;;;;;;5032347;28;20496;-83
2022/04/23 11:02:28;;;;;;;11.90;10.70;;;17.70;56.00;;;;;;5012183;28;20041;-83
2022/04/23 11:13:27;;;;;;;;;;;18.10;57.90;;;;;;4976005;28;20053;-82
2022/04/23 11:16:06;;;;;;;17.92;11.32;;;18.10;57.50;;;;;;4995292;28;20395;-82
2022/04/23 11:18:33;;;;;;;15.20;10.18;;;18.10;57.90;;;;;;5005344;28;20068;-85
2022/04/23 11:21:16;;;;;;;14.98;10.90;;;18.20;57.70;;;;;;5015493;28;20041;-84
2022/04/23 11:23:47;;;;;;;15.02;11.45;;;18.10;56.20;;;;;;4999926;28;20435;-83
2022/04/23 11:26:18;;;;;;;16.08;10.73;;;18.20;57.20;;;;;;4996495;28;20441;-82
2022/04/23 11:28:45;;;;;;;13.02;11.60;;;18.30;57.10;;;;;;4986478;28;20058;-85
2022/04/23 11:31:15;;;;;;;18.92;11.18;;;18.50;57.60;;;;;;4992849;28;20121;-83
2022/04/23 11:33:54;;;;;;;15.15;10.45;;;18.60;56.00;;;;;;5025410;28;20041;-84
2022/04/23 11:36:34;;;;;;;13.82;10.73;;;18.50;54.50;;;;;;5010719;28;20048;-83
2022/04/23 11:39:04;;;;;;;13.05;10.88;;;18.50;54.60;;;;;;4995641;28;20441;-83
2022/04/23 11:41:36;;;;;;;11.15;9.70;;;18.30;54.10;;;;;;4995194;28;20519;-84
2022/04/23 11:44:45;;;;;;;12.48;9.95;;;18.40;54.10;;;;;;4981829;28;20080;-84
2022/04/23 11:47:11;;;;;;;12.85;9.93;;;18.50;52.60;;;;;;5011101;28;20113;-84
2022/04/23 11:49:37;;;;;;;11.88;10.52;;;18.70;54.20;;;;;;4982860;28;20108;-83
2022/04/23 11:52:05;;;;;;;12.18;9.77;;;18.80;53.60;;;;;;4979345;28;20112;-83
2022/04/23 11:54:45;;;;;;;13.63;10.05;;;18.80;52.90;;;;;;4971661;28;20556;-84
2022/04/23 11:57:16;;;;;;;14.07;9.88;;;18.60;52.10;;;;;;4995092;28;20827;-84
2022/04/23 11:59:46;;;;;;;10.00;9.00;;;18.60;53.00;;;;;;4992124;28;20050;-84
2022/04/23 12:02:23;;;;;;;9.98;8.95;;;18.70;52.60;;;;;;4992306;28;20040;-85
2022/04/23 12:04:55;;;;;;;12.30;9.60;;;18.70;51.10;;;;;;4976145;28;20046;-83
2022/04/23 12:07:23;;;;;;;15.40;10.07;;;18.70;52.00;;;;;;4988249;28;20064;-84
2022/04/23 12:09:52;;;;;;;15.55;9.63;;;18.80;52.60;;;;;;5013247;28;20077;-86
2022/04/23 12:12:20;;;;;;;13.52;9.63;;;18.80;51.90;;;;;;4995168;28;20124;-84
2022/04/23 12:14:47;;;;;;;10.80;9.70;;;18.60;51.70;;;;;;4991010;28;20378;-85
2022/04/23 12:17:31;;;;;;;10.35;9.18;;;18.60;51.90;;;;;;5031414;28;20046;-83
2022/04/23 12:19:57;;;;;;;11.55;8.32;;;18.80;53.10;;;;;;5028099;28;20049;-82
2022/04/23 12:22:28;;;;;;;10.02;7.82;;;18.90;51.90;;;;;;5011884;28;20041;-83
2022/04/23 12:25:16;;;;;;;8.38;7.47;;;18.90;50.20;;;;;;4990221;28;20042;-83
2022/04/23 12:27:55;;;;;;;10.80;7.50;;;19.00;49.30;;;;;;4976391;28;20478;-84
2022/04/23 12:41:56;;;;;;;9.20;8.18;;;19.20;48.90;;;;;;4975900;28;20042;-87
2022/04/23 12:44:23;;;;;;;8.13;7.32;;;19.20;49.30;;;;;;4975931;28;20047;-85
2022/04/23 12:47:01;;;;;;;8.27;7.13;;;19.40;49.20;;;;;;4961658;28;20055;-85
2022/04/23 12:49:50;;;;;;;8.63;6.50;;;19.40;47.30;;;;;;4984209;28;20061;-82
2022/04/23 12:52:20;;;;;;;10.13;6.32;;;19.50;47.80;;;;;;5005275;28;20057;-87
2022/04/23 12:55:18;;;;;;;9.55;6.35;;;19.50;47.70;;;;;;4979803;28;20038;-84
2022/04/23 12:57:50;;;;;;;8.60;6.07;;;19.60;46.70;;;;;;5001019;28;20703;-84
2022/04/23 13:00:19;;;;;;;10.07;7.15;;;19.70;47.50;;;;;;5017864;28;20128;-85
2022/04/23 13:02:49;;;;;;;9.85;6.78;;;19.80;47.10;;;;;;5022984;28;20045;-85
2022/04/23 13:05:15;;;;;;;8.52;6.38;;;19.80;47.00;;;;;;5018284;28;20116;-85
2022/04/23 13:10:26;;;;;;;6.68;5.95;;;19.80;46.80;;;;;;5006067;28;20081;-83
2022/04/23 13:12:51;;;;;;;8.63;5.85;;;19.80;46.90;;;;;;4983433;28;20077;-84
2022/04/23 13:15:17;;;;;;;10.48;6.43;;;19.80;46.20;;;;;;4998999;28;20049;-85
2022/04/23 13:17:45;;;;;;;7.70;6.90;;;19.80;46.10;;;;;;4982524;28;20045;-84
2022/04/23 13:20:12;;;;;;;12.80;8.20;;;19.90;46.50;;;;;;4985500;28;20516;-85